createdAt,value
2022-09-23T11:17:05.939Z,1007.75
2022-09-23T11:18:05.741Z,1007.74
2022-09-23T11:19:05.741Z,1007.75
2022-09-23T11:20:05.716Z,1007.71
2022-09-23T11:21:05.708Z,1007.68
2022-09-23T11:22:05.702Z,1007.63
2022-09-23T11:23:05.684Z,1007.61
2022-09-23T11:24:05.727Z,1007.62
2022-09-23T11:25:05.664Z,1007.59
2022-09-23T11:26:05.628Z,1007.56
2022-09-23T11:27:05.636Z,1007.59
2022-09-23T11:28:05.603Z,1007.60
2022-09-23T11:29:05.866Z,1007.60
2022-09-23T11:30:05.571Z,1007.59
2022-09-23T11:31:05.751Z,1007.62
2022-09-23T11:32:05.556Z,1007.58
2022-09-23T11:33:05.584Z,1007.62
2022-09-23T11:34:05.526Z,1007.61
2022-09-23T11:35:05.506Z,1007.61
2022-09-23T11:36:05.484Z,1007.58
2022-09-23T11:37:05.480Z,1007.57
2022-09-23T11:38:05.470Z,1007.57
2022-09-23T11:39:05.440Z,1007.55
2022-09-23T11:40:05.469Z,1007.52
2022-09-23T11:41:05.472Z,1007.50
2022-09-23T11:42:05.423Z,1007.53
2022-09-23T11:43:05.393Z,1007.52
2022-09-23T11:44:05.462Z,1007.52
2022-09-23T11:45:05.368Z,1007.45
2022-09-23T11:46:05.374Z,1007.49
2022-09-23T11:47:05.345Z,1007.46
2022-09-23T11:48:05.316Z,1007.47
2022-09-23T11:49:05.419Z,1007.46
2022-09-23T11:50:05.297Z,1007.41
2022-09-23T11:51:05.285Z,1007.43
2022-09-23T11:52:05.276Z,1007.48
2022-09-23T11:53:05.250Z,1007.44
2022-09-23T11:54:05.269Z,1007.38
2022-09-23T11:55:13.053Z,1007.40
2022-09-23T11:56:05.219Z,1007.43
2022-09-23T11:57:05.216Z,1007.41
2022-09-23T11:58:07.896Z,1007.45
2022-09-23T11:59:05.392Z,1007.40
2022-09-23T12:00:05.177Z,1007.39
2022-09-23T12:01:05.141Z,1007.37
2022-09-23T12:02:16.322Z,1007.38
2022-09-23T12:03:06.458Z,1007.32
2022-09-23T12:04:17.473Z,1007.37
2022-09-23T12:05:05.202Z,1007.39
2022-09-23T12:06:05.087Z,1007.34
2022-09-23T12:07:05.071Z,1007.39
2022-09-23T12:08:05.075Z,1007.35
2022-09-23T12:09:05.037Z,1007.32
2022-09-23T12:10:05.035Z,1007.34
2022-09-23T12:11:05.009Z,1007.29
2022-09-23T12:12:05.013Z,1007.27
2022-09-23T12:13:05.007Z,1007.30
2022-09-23T12:14:04.972Z,1007.27
2022-09-23T12:15:04.959Z,1007.22
2022-09-23T12:16:04.955Z,1007.27
2022-09-23T12:17:04.953Z,1007.27
2022-09-23T12:18:04.936Z,1007.28
2022-09-23T12:19:04.906Z,1007.23
2022-09-23T12:20:04.894Z,1007.21
2022-09-23T12:21:04.959Z,1007.17
2022-09-23T12:22:04.866Z,1007.20
2022-09-23T12:23:04.865Z,1007.17
2022-09-23T12:24:04.841Z,1007.14
2022-09-23T12:25:04.839Z,1007.14
2022-09-23T12:26:04.828Z,1007.16
2022-09-23T12:27:04.801Z,1007.14
2022-09-23T12:28:04.812Z,1007.13
2022-09-23T12:29:04.778Z,1007.08
2022-09-23T12:30:04.765Z,1007.08
2022-09-23T12:31:04.795Z,1007.06
2022-09-23T12:32:04.740Z,1007.07
2022-09-23T12:33:04.748Z,1007.05
2022-09-23T12:34:04.713Z,1007.00
2022-09-23T12:35:04.701Z,1006.97
2022-09-23T12:36:04.694Z,1006.95
2022-09-23T12:37:04.676Z,1006.93
2022-09-23T12:38:04.682Z,1006.91
2022-09-23T12:39:04.658Z,1006.93
2022-09-23T12:40:04.694Z,1006.91
2022-09-23T12:41:04.625Z,1006.88
2022-09-23T12:42:04.612Z,1006.88
2022-09-23T12:43:04.621Z,1006.88
2022-09-23T12:44:04.585Z,1006.90
2022-09-23T12:45:04.574Z,1006.90
2022-09-23T12:46:04.588Z,1006.92
2022-09-23T12:47:04.563Z,1006.90
2022-09-23T12:48:04.557Z,1006.92
2022-09-23T12:49:04.529Z,1006.91
2022-09-23T12:50:04.518Z,1006.93
2022-09-23T12:51:04.507Z,1006.92
2022-09-23T12:52:04.482Z,1006.93
2022-09-23T12:53:04.497Z,1006.97
2022-09-23T12:54:04.459Z,1006.94
2022-09-23T12:55:04.444Z,1006.95
2022-09-23T12:56:04.441Z,1006.96
2022-09-23T12:57:04.420Z,1006.95
2022-09-23T12:58:04.425Z,1006.97
2022-09-23T12:59:04.405Z,1006.91
2022-09-23T13:00:04.387Z,1006.92
2022-09-23T13:01:04.442Z,1006.89
2022-09-23T13:02:04.433Z,1006.86
2022-09-23T13:03:04.357Z,1006.84
2022-09-23T13:04:04.340Z,1006.78
2022-09-23T13:05:04.319Z,1006.77
2022-09-23T13:06:04.304Z,1006.76
2022-09-23T13:07:04.306Z,1006.73
2022-09-23T13:08:04.291Z,1006.76
2022-09-23T13:09:04.271Z,1006.78
2022-09-23T13:10:04.263Z,1006.70
2022-09-23T13:13:58.271Z,1006.68
2022-09-23T13:14:58.238Z,1006.68
2022-09-23T13:15:58.227Z,1006.68
2022-09-23T13:16:58.316Z,1006.69
2022-09-23T13:17:58.221Z,1006.64
2022-09-23T13:18:58.186Z,1006.65
2022-09-23T13:19:58.178Z,1006.62
2022-09-23T13:20:58.167Z,1006.66
2022-09-23T13:21:58.147Z,1006.62
2022-09-23T13:22:58.156Z,1006.60
2022-09-23T13:23:58.126Z,1006.62
2022-09-23T13:24:58.106Z,1006.61
2022-09-23T13:25:58.093Z,1006.61
2022-09-23T13:40:19.745Z,1006.57
2022-09-23T13:44:00.889Z,1006.50
2022-09-23T13:45:00.828Z,1006.51
2022-09-23T13:46:00.832Z,1006.52
2022-09-23T13:47:00.774Z,1006.54
2022-09-23T13:48:00.775Z,1006.52
2022-09-23T13:49:00.749Z,1006.52
2022-09-23T13:50:00.749Z,1006.52
